sensor_id;sensor_type;location;lat;lon;timestamp;pressure;altitude;pressure_sealevel;temperature;humidity
55517;BME280;41724;51.176;-0.708;2022-09-23T00:00:58;101133.62;;;20.42;50.01
55517;BME280;41724;51.176;-0.708;2022-09-23T00:03:27;101139.67;;;20.18;50.07
55517;BME280;41724;51.176;-0.708;2022-09-23T00:05:58;101142.73;;;20.34;50.19
55517;BME280;41724;51.176;-0.708;2022-09-23T00:08:26;101147.90;;;20.59;50.12
55517;BME280;41724;51.176;-0.708;2022-09-23T00:10:53;101153.62;;;20.36;50.23
55517;BME280;41724;51.176;-0.708;2022-09-23T00:13:21;101153.23;;;20.30;50.32
55517;BME280;41724;51.176;-0.708;2022-09-23T00:15:49;101152.55;;;20.30;50.15
55517;BME280;41724;51.176;-0.708;2022-09-23T00:18:17;101151.20;;;19.78;52.52
55517;BME280;41724;51.176;-0.708;2022-09-23T00:20:44;101150.88;;;20.01;52.32
55517;BME280;41724;51.176;-0.708;2022-09-23T00:23:11;101154.56;;;19.51;53.41
55517;BME280;41724;51.176;-0.708;2022-09-23T00:25:39;101153.17;;;19.99;53.14
55517;BME280;41724;51.176;-0.708;2022-09-23T00:28:06;101153.84;;;20.07;53.03
55517;BME280;41724;51.176;-0.708;2022-09-23T00:30:33;101150.19;;;20.02;52.93
55517;BME280;41724;51.176;-0.708;2022-09-23T00:33:00;101145.10;;;19.91;53.03
55517;BME280;41724;51.176;-0.708;2022-09-23T00:35:27;101144.43;;;19.87;53.35
55517;BME280;41724;51.176;-0.708;2022-09-23T00:37:54;101144.25;;;20.29;52.90
55517;BME280;41724;51.176;-0.708;2022-09-23T00:40:22;101145.83;;;19.95;53.28
55517;BME280;41724;51.176;-0.708;2022-09-23T00:42:49;101145.86;;;19.39;55.12
55517;BME280;41724;51.176;-0.708;2022-09-23T00:45:17;101143.71;;;19.20;55.92
55517;BME280;41724;51.176;-0.708;2022-09-23T00:47:46;101137.33;;;19.15;56.23
55517;BME280;41724;51.176;-0.708;2022-09-23T00:50:23;101129.51;;;19.47;56.43
55517;BME280;41724;51.176;-0.708;2022-09-23T00:52:55;101126.09;;;19.24;56.29
55517;BME280;41724;51.176;-0.708;2022-09-23T00:55:26;101131.02;;;18.75;58.09
55517;BME280;41724;51.176;-0.708;2022-09-23T00:57:58;101133.89;;;18.32;60.90
55517;BME280;41724;51.176;-0.708;2022-09-23T01:00:26;101129.17;;;18.43;60.76
55517;BME280;41724;51.176;-0.708;2022-09-23T01:02:53;101127.08;;;18.39;59.69
55517;BME280;41724;51.176;-0.708;2022-09-23T01:05:20;101126.48;;;18.91;58.46
55517;BME280;41724;51.176;-0.708;2022-09-23T01:07:48;101132.28;;;18.57;59.00
55517;BME280;41724;51.176;-0.708;2022-09-23T01:10:17;101131.26;;;19.11;57.78
55517;BME280;41724;51.176;-0.708;2022-09-23T01:12:57;101133.39;;;18.70;59.11
55517;BME280;41724;51.176;-0.708;2022-09-23T01:15:40;101129.10;;;18.49;59.43
55517;BME280;41724;51.176;-0.708;2022-09-23T01:18:22;101130.23;;;19.10;57.91
55517;BME280;41724;51.176;-0.708;2022-09-23T01:20:57;101125.86;;;19.07;57.34
55517;BME280;41724;51.176;-0.708;2022-09-23T01:24:05;101121.32;;;19.46;56.26
55517;BME280;41724;51.176;-0.708;2022-09-23T01:26:57;101118.79;;;19.60;56.20
55517;BME280;41724;51.176;-0.708;2022-09-23T01:29:52;101123.85;;;19.85;56.14
55517;BME280;41724;51.176;-0.708;2022-09-23T01:32:36;101118.35;;;19.72;55.40
55517;BME280;41724;51.176;-0.708;2022-09-23T01:35:09;101116.97;;;20.19;54.90
55517;BME280;41724;51.176;-0.708;2022-09-23T01:37:45;101117.03;;;19.84;55.52
55517;BME280;41724;51.176;-0.708;2022-09-23T01:40:19;101111.93;;;19.66;55.60
55517;BME280;41724;51.176;-0.708;2022-09-23T01:42:54;101109.76;;;20.11;54.47
55517;BME280;41724;51.176;-0.708;2022-09-23T01:45:27;101105.15;;;20.36;54.29
55517;BME280;41724;51.176;-0.708;2022-09-23T01:48:01;101102.88;;;20.20;54.20
55517;BME280;41724;51.176;-0.708;2022-09-23T01:50:35;101093.17;;;20.46;53.56
55517;BME280;41724;51.176;-0.708;2022-09-23T01:53:10;101091.26;;;20.57;53.26
55517;BME280;41724;51.176;-0.708;2022-09-23T01:55:42;101093.67;;;20.35;53.69
55517;BME280;41724;51.176;-0.708;2022-09-23T01:58:13;101093.52;;;20.34;53.05
55517;BME280;41724;51.176;-0.708;2022-09-23T02:00:50;101096.28;;;20.33;53.58
55517;BME280;41724;51.176;-0.708;2022-09-23T02:03:22;101098.63;;;19.73;54.97
55517;BME280;41724;51.176;-0.708;2022-09-23T02:05:53;101097.46;;;19.58;55.95
55517;BME280;41724;51.176;-0.708;2022-09-23T02:08:28;101094.34;;;19.88;55.37
55517;BME280;41724;51.176;-0.708;2022-09-23T02:11:02;101097.16;;;20.06;54.25
55517;BME280;41724;51.176;-0.708;2022-09-23T02:13:37;101093.02;;;20.31;53.72
55517;BME280;41724;51.176;-0.708;2022-09-23T02:16:10;101096.36;;;20.07;54.36
55517;BME280;41724;51.176;-0.708;2022-09-23T02:18:42;101091.23;;;20.34;53.42
55517;BME280;41724;51.176;-0.708;2022-09-23T02:21:13;101087.54;;;20.40;53.16
55517;BME280;41724;51.176;-0.708;2022-09-23T02:23:43;101086.30;;;20.43;53.15
55517;BME280;41724;51.176;-0.708;2022-09-23T02:26:17;101084.09;;;20.59;52.59
55517;BME280;41724;51.176;-0.708;2022-09-23T02:28:54;101090.28;;;20.58;52.45
55517;BME280;41724;51.176;-0.708;2022-09-23T02:31:30;101084.73;;;20.67;52.51
55517;BME280;41724;51.176;-0.708;2022-09-23T02:34:11;101080.03;;;20.75;52.27
55517;BME280;41724;51.176;-0.708;2022-09-23T02:36:50;101082.84;;;20.71;52.18
55517;BME280;41724;51.176;-0.708;2022-09-23T02:39:27;101080.07;;;20.60;52.43
55517;BME280;41724;51.176;-0.708;2022-09-23T02:42:03;101075.72;;;20.59;52.46
55517;BME280;41724;51.176;-0.708;2022-09-23T02:44:32;101070.91;;;20.69;52.24
55517;BME280;41724;51.176;-0.708;2022-09-23T02:47:00;101070.58;;;20.90;51.98
55517;BME280;41724;51.176;-0.708;2022-09-23T02:49:29;101069.14;;;20.77;52.17
55517;BME280;41724;51.176;-0.708;2022-09-23T02:52:00;101064.54;;;20.45;52.27
55517;BME280;41724;51.176;-0.708;2022-09-23T02:54:28;101059.92;;;20.41;52.34
55517;BME280;41724;51.176;-0.708;2022-09-23T02:56:55;101058.71;;;20.38;52.48
55517;BME280;41724;51.176;-0.708;2022-09-23T02:59:23;101050.57;;;20.36;52.48
55517;BME280;41724;51.176;-0.708;2022-09-23T03:02:05;101048.99;;;20.36;52.31
55517;BME280;41724;51.176;-0.708;2022-09-23T03:04:46;101048.08;;;20.49;52.22
55517;BME280;41724;51.176;-0.708;2022-09-23T03:07:23;101046.68;;;20.12;52.26
55517;BME280;41724;51.176;-0.708;2022-09-23T03:09:57;101047.01;;;20.08;52.51
55517;BME280;41724;51.176;-0.708;2022-09-23T03:12:37;101046.01;;;19.97;52.50
55517;BME280;41724;51.176;-0.708;2022-09-23T03:15:17;101047.87;;;20.07;52.39
55517;BME280;41724;51.176;-0.708;2022-09-23T03:17:56;101049.55;;;20.03;52.46
55517;BME280;41724;51.176;-0.708;2022-09-23T03:20:32;101050.45;;;19.78;52.27
55517;BME280;41724;51.176;-0.708;2022-09-23T03:23:11;101052.55;;;19.96;51.98
55517;BME280;41724;51.176;-0.708;2022-09-23T03:25:42;101049.68;;;19.91;52.21
55517;BME280;41724;51.176;-0.708;2022-09-23T03:28:15;101047.09;;;19.85;52.19
55517;BME280;41724;51.176;-0.708;2022-09-23T03:30:44;101045.39;;;19.86;52.02
55517;BME280;41724;51.176;-0.708;2022-09-23T03:33:13;101043.17;;;19.81;52.20
55517;BME280;41724;51.176;-0.708;2022-09-23T03:35:47;101044.33;;;19.51;52.21
55517;BME280;41724;51.176;-0.708;2022-09-23T03:38:20;101043.72;;;19.77;52.42
55517;BME280;41724;51.176;-0.708;2022-09-23T03:40:49;101045.98;;;19.80;52.61
55517;BME280;41724;51.176;-0.708;2022-09-23T03:43:18;101043.43;;;20.08;52.60
55517;BME280;41724;51.176;-0.708;2022-09-23T03:45:45;101042.16;;;19.57;52.70
55517;BME280;41724;51.176;-0.708;2022-09-23T03:48:13;101044.07;;;19.86;52.49
55517;BME280;41724;51.176;-0.708;2022-09-23T03:50:40;101042.97;;;19.94;52.40
55517;BME280;41724;51.176;-0.708;2022-09-23T03:53:07;101041.13;;;19.89;52.56
55517;BME280;41724;51.176;-0.708;2022-09-23T03:55:34;101040.37;;;19.95;52.41
55517;BME280;41724;51.176;-0.708;2022-09-23T03:58:01;101035.82;;;20.24;52.48
55517;BME280;41724;51.176;-0.708;2022-09-23T04:00:29;101035.04;;;20.01;52.33
55517;BME280;41724;51.176;-0.708;2022-09-23T04:02:56;101037.37;;;20.00;52.36
55517;BME280;41724;51.176;-0.708;2022-09-23T04:05:23;101034.89;;;20.06;52.31
55517;BME280;41724;51.176;-0.708;2022-09-23T04:07:51;101037.33;;;20.02;52.40
55517;BME280;41724;51.176;-0.708;2022-09-23T04:10:18;101038.72;;;19.86;52.74
55517;BME280;41724;51.176;-0.708;2022-09-23T04:12:50;101033.44;;;20.21;52.77
55517;BME280;41724;51.176;-0.708;2022-09-23T04:15:18;101036.07;;;20.09;52.70
55517;BME280;41724;51.176;-0.708;2022-09-23T04:17:45;101032.18;;;19.82;53.46
55517;BME280;41724;51.176;-0.708;2022-09-23T04:20:12;101029.16;;;20.02;53.96
55517;BME280;41724;51.176;-0.708;2022-09-23T04:22:39;101029.59;;;20.08;53.61
55517;BME280;41724;51.176;-0.708;2022-09-23T04:25:07;101028.88;;;19.88;53.35
55517;BME280;41724;51.176;-0.708;2022-09-23T04:27:35;101029.51;;;19.93;53.38
55517;BME280;41724;51.176;-0.708;2022-09-23T04:30:02;101032.86;;;19.96;53.41
55517;BME280;41724;51.176;-0.708;2022-09-23T04:32:29;101032.68;;;20.01;53.53
55517;BME280;41724;51.176;-0.708;2022-09-23T04:34:56;101031.82;;;20.20;53.82
55517;BME280;41724;51.176;-0.708;2022-09-23T04:37:23;101030.03;;;20.12;53.95
55517;BME280;41724;51.176;-0.708;2022-09-23T04:39:52;101031.91;;;20.11;54.14
55517;BME280;41724;51.176;-0.708;2022-09-23T04:42:19;101029.97;;;20.20;54.13
55517;BME280;41724;51.176;-0.708;2022-09-23T04:44:46;101030.80;;;19.97;54.15
55517;BME280;41724;51.176;-0.708;2022-09-23T04:47:13;101025.03;;;20.27;54.41
55517;BME280;41724;51.176;-0.708;2022-09-23T04:49:40;101019.65;;;20.03;54.51
55517;BME280;41724;51.176;-0.708;2022-09-23T04:52:08;101018.70;;;20.03;54.41
55517;BME280;41724;51.176;-0.708;2022-09-23T04:54:35;101015.61;;;20.09;54.61
55517;BME280;41724;51.176;-0.708;2022-09-23T04:57:03;101018.22;;;20.13;54.38
55517;BME280;41724;51.176;-0.708;2022-09-23T04:59:30;101023.17;;;20.13;54.58
55517;BME280;41724;51.176;-0.708;2022-09-23T05:01:57;101021.24;;;20.41;54.29
55517;BME280;41724;51.176;-0.708;2022-09-23T05:04:24;101019.54;;;20.28;53.85
55517;BME280;41724;51.176;-0.708;2022-09-23T05:06:52;101016.04;;;20.59;54.46
55517;BME280;41724;51.176;-0.708;2022-09-23T05:09:19;101017.00;;;20.29;54.21
55517;BME280;41724;51.176;-0.708;2022-09-23T05:11:46;101015.59;;;20.53;54.19
55517;BME280;41724;51.176;-0.708;2022-09-23T05:14:13;101016.78;;;20.54;54.71
55517;BME280;41724;51.176;-0.708;2022-09-23T05:16:41;101017.36;;;20.25;54.79
55517;BME280;41724;51.176;-0.708;2022-09-23T05:19:08;101021.34;;;20.25;54.61
55517;BME280;41724;51.176;-0.708;2022-09-23T05:21:35;101020.27;;;20.58;54.20
55517;BME280;41724;51.176;-0.708;2022-09-23T05:24:03;101019.96;;;20.33;54.58
55517;BME280;41724;51.176;-0.708;2022-09-23T05:26:31;101017.74;;;20.33;54.55
55517;BME280;41724;51.176;-0.708;2022-09-23T05:28:59;101017.47;;;20.56;54.43
55517;BME280;41724;51.176;-0.708;2022-09-23T05:31:27;101013.24;;;20.13;54.46
55517;BME280;41724;51.176;-0.708;2022-09-23T05:33:56;101012.09;;;20.37;54.49
55517;BME280;41724;51.176;-0.708;2022-09-23T05:36:25;101012.92;;;20.27;54.59
55517;BME280;41724;51.176;-0.708;2022-09-23T05:38:53;101014.54;;;20.26;54.51
55517;BME280;41724;51.176;-0.708;2022-09-23T05:41:21;101016.86;;;20.33;54.49
55517;BME280;41724;51.176;-0.708;2022-09-23T05:43:49;101016.35;;;20.30;54.61
55517;BME280;41724;51.176;-0.708;2022-09-23T05:46:18;101020.54;;;20.55;54.43
55517;BME280;41724;51.176;-0.708;2022-09-23T05:48:45;101019.58;;;20.45;54.36
55517;BME280;41724;51.176;-0.708;2022-09-23T05:51:15;101019.26;;;20.43;54.73
55517;BME280;41724;51.176;-0.708;2022-09-23T05:53:42;101021.97;;;20.45;54.49
55517;BME280;41724;51.176;-0.708;2022-09-23T05:56:10;101029.57;;;20.44;54.50
55517;BME280;41724;51.176;-0.708;2022-09-23T05:58:38;101031.04;;;20.43;54.21
55517;BME280;41724;51.176;-0.708;2022-09-23T06:01:10;101033.87;;;20.34;54.12
55517;BME280;41724;51.176;-0.708;2022-09-23T06:03:37;101035.29;;;20.28;54.68
55517;BME280;41724;51.176;-0.708;2022-09-23T06:06:05;101032.37;;;20.50;54.50
55517;BME280;41724;51.176;-0.708;2022-09-23T06:08:33;101032.99;;;20.37;54.65
55517;BME280;41724;51.176;-0.708;2022-09-23T06:11:03;101029.31;;;20.46;54.06
55517;BME280;41724;51.176;-0.708;2022-09-23T06:13:31;101025.79;;;20.30;54.28
55517;BME280;41724;51.176;-0.708;2022-09-23T06:15:58;101030.36;;;20.54;54.74
55517;BME280;41724;51.176;-0.708;2022-09-23T06:18:25;101029.27;;;20.48;54.64
55517;BME280;41724;51.176;-0.708;2022-09-23T06:20:52;101026.70;;;20.54;54.75
55517;BME280;41724;51.176;-0.708;2022-09-23T06:23:19;101031.62;;;20.54;54.71
55517;BME280;41724;51.176;-0.708;2022-09-23T06:25:47;101033.17;;;20.33;54.38
55517;BME280;41724;51.176;-0.708;2022-09-23T06:28:14;101033.04;;;20.54;54.86
55517;BME280;41724;51.176;-0.708;2022-09-23T06:30:41;101032.73;;;20.40;54.96
55517;BME280;41724;51.176;-0.708;2022-09-23T06:33:09;101036.64;;;20.79;54.77
55517;BME280;41724;51.176;-0.708;2022-09-23T06:35:36;101037.60;;;20.60;54.94
55517;BME280;41724;51.176;-0.708;2022-09-23T06:38:04;101040.44;;;20.52;55.05
55517;BME280;41724;51.176;-0.708;2022-09-23T06:40:31;101040.87;;;20.65;55.09
55517;BME280;41724;51.176;-0.708;2022-09-23T06:43:00;101041.46;;;20.50;54.85
55517;BME280;41724;51.176;-0.708;2022-09-23T06:45:28;101045.62;;;20.67;54.85
55517;BME280;41724;51.176;-0.708;2022-09-23T06:47:56;101048.16;;;20.52;55.04
55517;BME280;41724;51.176;-0.708;2022-09-23T06:50:24;101048.94;;;20.82;54.74
55517;BME280;41724;51.176;-0.708;2022-09-23T06:52:52;101051.37;;;20.49;55.03
55517;BME280;41724;51.176;-0.708;2022-09-23T06:55:20;101049.94;;;20.74;54.57
55517;BME280;41724;51.176;-0.708;2022-09-23T06:57:47;101053.41;;;20.70;54.95
55517;BME280;41724;51.176;-0.708;2022-09-23T07:00:14;101055.80;;;20.52;54.96
55517;BME280;41724;51.176;-0.708;2022-09-23T07:02:42;101056.07;;;20.77;54.56
55517;BME280;41724;51.176;-0.708;2022-09-23T07:05:09;101057.05;;;20.71;54.85
55517;BME280;41724;51.176;-0.708;2022-09-23T07:07:36;101053.52;;;20.68;55.04
55517;BME280;41724;51.176;-0.708;2022-09-23T07:10:05;101053.13;;;20.80;54.94
55517;BME280;41724;51.176;-0.708;2022-09-23T07:12:32;101058.64;;;20.43;54.67
55517;BME280;41724;51.176;-0.708;2022-09-23T07:15:00;101057.13;;;20.80;54.76
55517;BME280;41724;51.176;-0.708;2022-09-23T07:17:27;101053.47;;;21.10;54.72
55517;BME280;41724;51.176;-0.708;2022-09-23T07:19:54;101046.59;;;21.10;54.51
55517;BME280;41724;51.176;-0.708;2022-09-23T07:22:22;101049.37;;;20.93;54.77
55517;BME280;41724;51.176;-0.708;2022-09-23T07:24:50;101050.14;;;20.74;54.75
55517;BME280;41724;51.176;-0.708;2022-09-23T07:27:17;101048.22;;;21.19;54.30
55517;BME280;41724;51.176;-0.708;2022-09-23T07:29:44;101049.21;;;21.20;54.73
55517;BME280;41724;51.176;-0.708;2022-09-23T07:32:12;101051.81;;;21.18;55.07
55517;BME280;41724;51.176;-0.708;2022-09-23T07:34:39;101057.28;;;20.89;54.94
55517;BME280;41724;51.176;-0.708;2022-09-23T07:37:07;101054.85;;;21.01;55.17
55517;BME280;41724;51.176;-0.708;2022-09-23T07:39:34;101057.10;;;20.87;55.41
55517;BME280;41724;51.176;-0.708;2022-09-23T07:42:02;101061.58;;;20.80;55.66
55517;BME280;41724;51.176;-0.708;2022-09-23T07:44:30;101061.22;;;20.86;55.79
55517;BME280;41724;51.176;-0.708;2022-09-23T07:46:58;101059.97;;;21.13;55.62
55517;BME280;41724;51.176;-0.708;2022-09-23T07:49:26;101054.18;;;20.77;55.35
55517;BME280;41724;51.176;-0.708;2022-09-23T07:51:53;101054.45;;;21.10;55.50
55517;BME280;41724;51.176;-0.708;2022-09-23T07:54:20;101054.58;;;21.27;55.23
55517;BME280;41724;51.176;-0.708;2022-09-23T07:56:47;101053.49;;;21.19;55.10
55517;BME280;41724;51.176;-0.708;2022-09-23T07:59:17;101054.83;;;21.04;55.35
55517;BME280;41724;51.176;-0.708;2022-09-23T08:01:45;101060.54;;;21.47;55.19
55517;BME280;41724;51.176;-0.708;2022-09-23T08:04:16;101064.90;;;21.28;55.38
55517;BME280;41724;51.176;-0.708;2022-09-23T08:06:45;101060.72;;;21.19;56.08
55517;BME280;41724;51.176;-0.708;2022-09-23T08:09:13;101064.19;;;21.06;55.54
55517;BME280;41724;51.176;-0.708;2022-09-23T08:11:41;101064.17;;;21.16;55.20
55517;BME280;41724;51.176;-0.708;2022-09-23T08:14:08;101065.95;;;21.28;55.41
55517;BME280;41724;51.176;-0.708;2022-09-23T08:16:37;101062.80;;;21.31;54.91
55517;BME280;41724;51.176;-0.708;2022-09-23T08:19:05;101065.27;;;21.32;55.16
55517;BME280;41724;51.176;-0.708;2022-09-23T08:21:33;101068.92;;;21.28;55.03
55517;BME280;41724;51.176;-0.708;2022-09-23T08:24:01;101074.49;;;20.82;55.91
55517;BME280;41724;51.176;-0.708;2022-09-23T08:26:33;101072.61;;;20.91;56.34
55517;BME280;41724;51.176;-0.708;2022-09-23T08:29:02;101073.50;;;21.08;56.17
55517;BME280;41724;51.176;-0.708;2022-09-23T08:31:29;101073.25;;;20.35;56.89
55517;BME280;41724;51.176;-0.708;2022-09-23T08:33:58;101075.97;;;20.46;57.44
55517;BME280;41724;51.176;-0.708;2022-09-23T08:36:26;101085.16;;;20.05;58.07
55517;BME280;41724;51.176;-0.708;2022-09-23T08:38:53;101085.67;;;20.53;58.35
55517;BME280;41724;51.176;-0.708;2022-09-23T08:41:28;101090.72;;;20.18;58.21
55517;BME280;41724;51.176;-0.708;2022-09-23T08:44:03;101091.09;;;19.63;59.75
55517;BME280;41724;51.176;-0.708;2022-09-23T08:46:34;101090.17;;;20.05;58.71
55517;BME280;41724;51.176;-0.708;2022-09-23T08:49:04;101088.18;;;20.80;57.68
55517;BME280;41724;51.176;-0.708;2022-09-23T08:51:38;101092.44;;;20.42;58.93
55517;BME280;41724;51.176;-0.708;2022-09-23T08:54:09;101091.25;;;20.47;58.10
55517;BME280;41724;51.176;-0.708;2022-09-23T08:56:37;101093.44;;;21.14;56.48
55517;BME280;41724;51.176;-0.708;2022-09-23T08:59:11;101100.08;;;20.99;56.07
55517;BME280;41724;51.176;-0.708;2022-09-23T09:01:46;101102.97;;;20.72;55.77
55517;BME280;41724;51.176;-0.708;2022-09-23T09:04:19;101101.44;;;20.66;56.27
55517;BME280;41724;51.176;-0.708;2022-09-23T09:06:54;101101.29;;;20.91;56.23
55517;BME280;41724;51.176;-0.708;2022-09-23T09:09:27;101105.22;;;20.59;56.91
55517;BME280;41724;51.176;-0.708;2022-09-23T09:12:02;101104.23;;;20.70;56.83
55517;BME280;41724;51.176;-0.708;2022-09-23T09:14:40;101106.15;;;21.05;56.27
55517;BME280;41724;51.176;-0.708;2022-09-23T09:17:16;101110.02;;;20.98;55.95
55517;BME280;41724;51.176;-0.708;2022-09-23T09:19:55;101110.49;;;21.28;56.34
55517;BME280;41724;51.176;-0.708;2022-09-23T09:22:39;101109.51;;;20.89;55.48
55517;BME280;41724;51.176;-0.708;2022-09-23T09:25:20;101109.23;;;21.21;55.51
55517;BME280;41724;51.176;-0.708;2022-09-23T09:27:50;101108.69;;;21.16;55.23
55517;BME280;41724;51.176;-0.708;2022-09-23T09:30:19;101109.22;;;20.97;55.78
55517;BME280;41724;51.176;-0.708;2022-09-23T09:32:49;101108.71;;;21.20;55.48
55517;BME280;41724;51.176;-0.708;2022-09-23T09:35:28;101106.76;;;20.86;55.78
55517;BME280;41724;51.176;-0.708;2022-09-23T09:37:59;101106.21;;;21.45;55.41
55517;BME280;41724;51.176;-0.708;2022-09-23T09:40:26;101108.99;;;20.90;55.47
55517;BME280;41724;51.176;-0.708;2022-09-23T09:42:54;101111.06;;;21.37;55.78
55517;BME280;41724;51.176;-0.708;2022-09-23T09:45:28;101112.67;;;21.29;54.99
55517;BME280;41724;51.176;-0.708;2022-09-23T09:48:07;101114.77;;;21.66;54.02
55517;BME280;41724;51.176;-0.708;2022-09-23T09:50:44;101118.41;;;21.38;53.19
55517;BME280;41724;51.176;-0.708;2022-09-23T09:53:16;101112.74;;;21.64;53.66
55517;BME280;41724;51.176;-0.708;2022-09-23T09:55:57;101108.56;;;21.57;52.43
55517;BME280;41724;51.176;-0.708;2022-09-23T09:58:28;101108.54;;;22.12;54.03
55517;BME280;41724;51.176;-0.708;2022-09-23T10:01:04;101110.32;;;22.07;52.73
55517;BME280;41724;51.176;-0.708;2022-09-23T10:03:37;101109.19;;;22.04;52.73
55517;BME280;41724;51.176;-0.708;2022-09-23T10:06:16;101109.70;;;22.24;52.53
55517;BME280;41724;51.176;-0.708;2022-09-23T10:08:50;101102.81;;;22.11;52.74
55517;BME280;41724;51.176;-0.708;2022-09-23T10:11:31;101100.22;;;22.17;52.93
55517;BME280;41724;51.176;-0.708;2022-09-23T10:14:03;101103.61;;;22.39;53.39
55517;BME280;41724;51.176;-0.708;2022-09-23T10:16:33;101100.70;;;22.43;52.54
55517;BME280;41724;51.176;-0.708;2022-09-23T10:19:02;101094.08;;;22.01;53.35
55517;BME280;41724;51.176;-0.708;2022-09-23T10:21:33;101091.26;;;22.63;52.56
55517;BME280;41724;51.176;-0.708;2022-09-23T10:24:04;101087.54;;;22.32;51.37
55517;BME280;41724;51.176;-0.708;2022-09-23T10:26:35;101087.66;;;22.08;50.29
55517;BME280;41724;51.176;-0.708;2022-09-23T10:29:21;101086.39;;;22.37;51.66
55517;BME280;41724;51.176;-0.708;2022-09-23T10:32:17;101081.86;;;22.17;51.92
55517;BME280;41724;51.176;-0.708;2022-09-23T10:34:49;101081.12;;;21.85;53.04
55517;BME280;41724;51.176;-0.708;2022-09-23T10:37:19;101079.01;;;21.76;52.49
55517;BME280;41724;51.176;-0.708;2022-09-23T10:39:49;101077.19;;;22.12;51.74
55517;BME280;41724;51.176;-0.708;2022-09-23T10:42:23;101079.00;;;21.95;51.52
55517;BME280;41724;51.176;-0.708;2022-09-23T10:45:01;101080.21;;;22.23;51.32
55517;BME280;41724;51.176;-0.708;2022-09-23T10:47:49;101080.35;;;22.99;51.46
55517;BME280;41724;51.176;-0.708;2022-09-23T10:50:33;101074.00;;;22.69;51.32
55517;BME280;41724;51.176;-0.708;2022-09-23T10:53:11;101074.40;;;22.66;48.31
55517;BME280;41724;51.176;-0.708;2022-09-23T10:55:59;101069.41;;;22.66;49.28
55517;BME280;41724;51.176;-0.708;2022-09-23T10:58:51;101070.33;;;22.71;50.87
55517;BME280;41724;51.176;-0.708;2022-09-23T11:01:32;101069.21;;;22.53;51.61
55517;BME280;41724;51.176;-0.708;2022-09-23T11:04:22;101062.97;;;22.72;50.97
55517;BME280;41724;51.176;-0.708;2022-09-23T11:07:07;101059.27;;;23.16;50.61
55517;BME280;41724;51.176;-0.708;2022-09-23T11:09:48;101059.95;;;23.52;49.21
55517;BME280;41724;51.176;-0.708;2022-09-23T11:12:29;101061.20;;;23.36;48.56
55517;BME280;41724;51.176;-0.708;2022-09-23T11:15:14;101063.54;;;23.68;47.31
55517;BME280;41724;51.176;-0.708;2022-09-23T11:18:04;101068.36;;;23.40;47.34
55517;BME280;41724;51.176;-0.708;2022-09-23T11:20:43;101067.95;;;23.21;48.04
55517;BME280;41724;51.176;-0.708;2022-09-23T11:23:28;101071.03;;;22.82;48.92
55517;BME280;41724;51.176;-0.708;2022-09-23T11:26:06;101071.28;;;23.24;49.11
55517;BME280;41724;51.176;-0.708;2022-09-23T11:28:52;101071.19;;;23.05;48.19
55517;BME280;41724;51.176;-0.708;2022-09-23T11:31:36;101070.72;;;23.01;48.43
55517;BME280;41724;51.176;-0.708;2022-09-23T11:34:15;101064.34;;;23.35;46.56
55517;BME280;41724;51.176;-0.708;2022-09-23T11:36:55;101065.29;;;23.52;47.31
55517;BME280;41724;51.176;-0.708;2022-09-23T11:39:28;101061.69;;;23.61;46.89
55517;BME280;41724;51.176;-0.708;2022-09-23T11:41:58;101057.16;;;23.64;45.26
55517;BME280;41724;51.176;-0.708;2022-09-23T11:44:32;101055.77;;;23.70;45.29
55517;BME280;41724;51.176;-0.708;2022-09-23T11:47:07;101059.99;;;23.36;45.27
55517;BME280;41724;51.176;-0.708;2022-09-23T11:49:39;101059.39;;;23.42;47.34
55517;BME280;41724;51.176;-0.708;2022-09-23T11:52:11;101055.02;;;23.82;47.58
55517;BME280;41724;51.176;-0.708;2022-09-23T11:54:47;101058.70;;;23.38;46.48
55517;BME280;41724;51.176;-0.708;2022-09-23T11:57:24;101054.07;;;23.88;44.55
55517;BME280;41724;51.176;-0.708;2022-09-23T11:59:56;101056.88;;;23.77;47.15
55517;BME280;41724;51.176;-0.708;2022-09-23T12:02:31;101059.17;;;23.59;46.08
55517;BME280;41724;51.176;-0.708;2022-09-23T12:05:11;101064.16;;;23.40;47.23
55517;BME280;41724;51.176;-0.708;2022-09-23T12:07:47;101059.09;;;23.39;47.11
55517;BME280;41724;51.176;-0.708;2022-09-23T12:10:17;101055.73;;;23.35;45.12
55517;BME280;41724;51.176;-0.708;2022-09-23T12:12:52;101056.85;;;23.42;44.62
55517;BME280;41724;51.176;-0.708;2022-09-23T12:15:42;101054.55;;;23.59;46.06
55517;BME280;41724;51.176;-0.708;2022-09-23T12:18:36;101051.15;;;23.40;45.53
55517;BME280;41724;51.176;-0.708;2022-09-23T12:21:19;101046.96;;;23.60;45.83
55517;BME280;41724;51.176;-0.708;2022-09-23T12:24:06;101042.03;;;23.31;45.25
55517;BME280;41724;51.176;-0.708;2022-09-23T12:26:41;101039.05;;;23.21;45.22
55517;BME280;41724;51.176;-0.708;2022-09-23T12:29:12;101042.18;;;23.55;46.28
55517;BME280;41724;51.176;-0.708;2022-09-23T12:31:41;101036.01;;;23.32;45.45
55517;BME280;41724;51.176;-0.708;2022-09-23T12:34:22;101036.54;;;23.41;45.20
55517;BME280;41724;51.176;-0.708;2022-09-23T12:36:52;101034.45;;;23.37;46.93
55517;BME280;41724;51.176;-0.708;2022-09-23T12:39:26;101034.93;;;23.40;46.57
55517;BME280;41724;51.176;-0.708;2022-09-23T12:42:00;101032.44;;;23.24;44.95
55517;BME280;41724;51.176;-0.708;2022-09-23T12:44:31;101034.49;;;23.52;45.68
55517;BME280;41724;51.176;-0.708;2022-09-23T12:47:35;101030.78;;;23.49;46.02
55517;BME280;41724;51.176;-0.708;2022-09-23T12:50:47;101030.05;;;23.61;45.17
55517;BME280;41724;51.176;-0.708;2022-09-23T12:53:55;101022.40;;;23.44;43.35
55517;BME280;41724;51.176;-0.708;2022-09-23T12:56:27;101023.31;;;23.33;45.14
55517;BME280;41724;51.176;-0.708;2022-09-23T12:58:59;101025.01;;;23.41;44.31
55517;BME280;41724;51.176;-0.708;2022-09-23T13:01:29;101021.61;;;23.63;44.41
55517;BME280;41724;51.176;-0.708;2022-09-23T13:04:02;101020.81;;;22.83;45.80
55517;BME280;41724;51.176;-0.708;2022-09-23T13:06:36;101017.38;;;23.35;45.59